createdAt,value
2023-11-23T00:01:55.454Z,22.74
2023-11-23T00:04:01.100Z,22.75
2023-11-23T00:06:06.516Z,22.75
2023-11-23T00:08:12.252Z,22.75
2023-11-23T00:10:17.587Z,22.75
2023-11-23T00:12:23.132Z,22.75
2023-11-23T00:14:28.570Z,22.75
2023-11-23T00:16:33.950Z,22.75
2023-11-23T00:18:39.547Z,22.75
2023-11-23T00:20:45.443Z,22.76
2023-11-23T00:22:50.844Z,22.75
2023-11-23T00:24:57.137Z,22.75
2023-11-23T00:27:02.565Z,22.74
2023-11-23T00:29:08.195Z,22.74
2023-11-23T00:31:13.644Z,22.74
2023-11-23T00:33:19.048Z,22.74
2023-11-23T00:35:24.828Z,22.75
2023-11-23T00:37:30.274Z,22.76
2023-11-23T00:39:35.603Z,22.74
2023-11-23T00:41:41.165Z,22.75
2023-11-23T00:43:46.573Z,22.75
2023-11-23T00:45:52.022Z,22.74
2023-11-23T00:47:57.702Z,22.74
2023-11-23T00:50:03.460Z,22.74
2023-11-23T00:52:08.870Z,22.75
2023-11-23T00:54:14.430Z,22.75
2023-11-23T00:56:19.944Z,22.75
2023-11-23T00:58:25.280Z,22.75
2023-11-23T01:00:30.658Z,22.75
2023-11-23T01:02:36.314Z,22.75
2023-11-23T01:04:42.528Z,22.76
2023-11-23T01:06:47.950Z,22.76
2023-11-23T01:08:53.312Z,22.76
2023-11-23T01:10:58.746Z,22.77
2023-11-23T01:13:04.172Z,22.77
2023-11-23T01:15:09.523Z,22.77
2023-11-23T01:17:15.061Z,22.77
2023-11-23T01:19:20.604Z,22.78
2023-11-23T01:21:25.947Z,22.78
2023-11-23T01:23:31.508Z,22.77
2023-11-23T01:25:36.829Z,22.79
2023-11-23T01:27:42.581Z,22.79
2023-11-23T01:29:47.915Z,22.79
2023-11-23T01:31:53.347Z,22.8
2023-11-23T01:33:59.185Z,22.8
2023-11-23T01:36:04.989Z,22.8
2023-11-23T01:38:10.383Z,22.8
2023-11-23T01:40:15.825Z,22.8
2023-11-23T01:42:21.268Z,22.81
2023-11-23T01:44:26.806Z,22.81
2023-11-23T01:46:32.455Z,22.82
2023-11-23T01:48:38.002Z,22.82
2023-11-23T01:50:43.535Z,22.81
2023-11-23T01:52:48.872Z,22.82
2023-11-23T01:54:54.371Z,22.82
2023-11-23T01:57:00.082Z,22.82
2023-11-23T01:59:05.602Z,22.82
2023-11-23T02:01:11.257Z,22.82
2023-11-23T02:03:16.906Z,22.82
2023-11-23T02:05:50.810Z,22.78
2023-11-23T02:07:56.240Z,22.8
2023-11-23T02:10:01.586Z,22.8
2023-11-23T02:12:07.179Z,22.81
2023-11-23T02:14:12.664Z,22.83
2023-11-23T02:16:17.929Z,22.83
2023-11-23T02:18:23.404Z,22.83
2023-11-23T02:20:28.996Z,22.83
2023-11-23T02:22:34.422Z,22.83
2023-11-23T02:24:39.658Z,22.84
2023-11-23T02:26:45.038Z,22.84
2023-11-23T02:28:50.740Z,22.85
2023-11-23T02:30:56.188Z,22.84
2023-11-23T02:33:02.095Z,22.84
2023-11-23T02:35:07.630Z,22.83
2023-11-23T02:37:13.222Z,22.83
2023-11-23T02:39:18.733Z,22.84
2023-11-23T02:41:24.218Z,22.84
2023-11-23T02:43:29.745Z,22.84
2023-11-23T02:45:35.112Z,22.84
2023-11-23T02:47:40.674Z,22.84
2023-11-23T02:49:46.491Z,22.83
2023-11-23T02:51:52.025Z,22.84
2023-11-23T02:53:57.414Z,22.83
2023-11-23T02:56:02.803Z,22.83
2023-11-23T02:58:08.238Z,22.81
2023-11-23T03:00:13.667Z,22.81
2023-11-23T03:02:19.425Z,22.8
2023-11-23T03:04:25.090Z,22.79
2023-11-23T03:06:30.514Z,22.78
2023-11-23T03:08:35.972Z,22.78
2023-11-23T03:10:41.505Z,22.77
2023-11-23T03:12:46.932Z,22.75
2023-11-23T03:14:52.154Z,22.75
2023-11-23T03:16:57.821Z,22.75
2023-11-23T03:19:03.250Z,22.75
2023-11-23T03:21:09.049Z,22.73
2023-11-23T03:23:14.765Z,22.74
2023-11-23T03:25:20.294Z,22.73
2023-11-23T03:27:25.628Z,22.72
2023-11-23T03:29:30.983Z,22.72
2023-11-23T03:31:36.416Z,22.71
2023-11-23T03:33:42.010Z,22.71
2023-11-23T03:35:47.637Z,22.72
2023-11-23T03:37:53.159Z,22.71
2023-11-23T03:39:58.586Z,22.71
2023-11-23T03:42:04.154Z,22.7
2023-11-23T03:44:09.867Z,22.7
2023-11-23T03:46:15.179Z,22.69
2023-11-23T03:48:20.745Z,22.69
2023-11-23T03:50:26.314Z,22.68
2023-11-23T03:52:31.841Z,22.68
2023-11-23T03:54:37.476Z,22.68
2023-11-23T03:56:42.912Z,22.68
2023-11-23T03:58:48.463Z,22.69
2023-11-23T04:00:53.697Z,22.68
2023-11-23T04:02:59.067Z,22.68
2023-11-23T04:05:04.698Z,22.67
2023-11-23T04:07:10.335Z,22.67
2023-11-23T04:09:15.808Z,22.67
2023-11-23T04:11:21.211Z,22.66
2023-11-23T04:13:26.681Z,22.66
2023-11-23T04:15:32.093Z,22.66
2023-11-23T04:17:37.757Z,22.68
2023-11-23T04:19:43.277Z,22.68
2023-11-23T04:21:48.615Z,22.68
2023-11-23T04:23:53.973Z,22.67
2023-11-23T04:25:59.396Z,22.67
2023-11-23T04:28:04.841Z,22.67
2023-11-23T04:30:11.392Z,22.67
2023-11-23T04:32:17.054Z,22.67
2023-11-23T04:34:22.521Z,22.66
2023-11-23T04:36:27.978Z,22.66
2023-11-23T04:38:33.465Z,22.67
2023-11-23T04:40:38.907Z,22.68
2023-11-23T04:42:44.454Z,22.68
2023-11-23T04:44:49.828Z,22.68
2023-11-23T04:46:55.249Z,22.69
2023-11-23T04:49:00.559Z,22.7
2023-11-23T04:51:05.939Z,22.68
2023-11-23T04:53:11.466Z,22.68
2023-11-23T04:55:16.846Z,22.68
2023-11-23T04:57:22.476Z,22.7
2023-11-23T04:59:28.016Z,22.7
2023-11-23T05:01:33.549Z,22.7
2023-11-23T05:03:39.123Z,22.71
2023-11-23T05:05:44.839Z,22.71
2023-11-23T05:07:50.243Z,22.73
2023-11-23T05:09:55.695Z,22.75
2023-11-23T05:12:01.148Z,22.77
2023-11-23T05:14:06.585Z,22.8
2023-11-23T05:16:12.121Z,22.83
2023-11-23T05:18:17.706Z,22.85
2023-11-23T05:20:23.297Z,22.88
2023-11-23T05:22:28.655Z,22.9
2023-11-23T05:24:33.999Z,22.94
2023-11-23T05:26:39.320Z,22.97
2023-11-23T05:28:44.641Z,23.02
2023-11-23T05:30:50.101Z,23.04
2023-11-23T05:32:55.686Z,23.06
2023-11-23T05:35:01.382Z,23.05
2023-11-23T05:37:06.830Z,23.05
2023-11-23T05:39:12.235Z,23.04
2023-11-23T05:41:17.800Z,23.02
2023-11-23T05:43:23.253Z,23.01
2023-11-23T05:45:28.927Z,23.01
2023-11-23T05:47:34.467Z,23
2023-11-23T05:49:40.085Z,23.01
2023-11-23T05:51:45.524Z,22.99
2023-11-23T05:53:50.873Z,22.98
2023-11-23T05:55:56.405Z,22.97
2023-11-23T05:58:01.704Z,22.96
2023-11-23T06:00:06.992Z,22.99
2023-11-23T06:02:12.503Z,23.01
2023-11-23T06:04:18.272Z,23.03
2023-11-23T06:06:24.242Z,23.02
2023-11-23T06:08:29.600Z,23.01
2023-11-23T06:10:35.302Z,22.99
2023-11-23T06:12:40.749Z,22.98
2023-11-23T06:14:46.379Z,22.95
2023-11-23T06:16:52.080Z,22.93
2023-11-23T06:18:58.522Z,22.94
2023-11-23T06:21:07.957Z,22.94
2023-11-23T06:23:13.675Z,22.96
2023-11-23T06:25:19.535Z,22.94
2023-11-23T06:27:26.403Z,22.92
2023-11-23T06:29:32.150Z,22.9
2023-11-23T06:31:37.594Z,22.87
2023-11-23T06:33:43.075Z,22.86
2023-11-23T06:35:48.618Z,22.82
2023-11-23T06:37:54.221Z,22.77
2023-11-23T06:39:59.647Z,22.75
2023-11-23T06:42:05.043Z,22.73
2023-11-23T06:44:10.732Z,22.73
2023-11-23T06:46:16.082Z,22.73
2023-11-23T06:48:21.652Z,22.75
2023-11-23T06:50:27.578Z,22.77
2023-11-23T06:52:32.911Z,22.78
2023-11-23T06:54:38.556Z,22.8
2023-11-23T06:56:43.919Z,22.79
2023-11-23T06:58:49.437Z,22.77
2023-11-23T07:00:55.083Z,22.79
2023-11-23T07:03:00.565Z,22.81
2023-11-23T07:05:06.163Z,22.84
2023-11-23T07:07:11.590Z,22.86
2023-11-23T07:09:17.076Z,22.86
2023-11-23T07:11:22.681Z,22.87
2023-11-23T07:13:28.114Z,22.86
2023-11-23T07:15:33.600Z,22.85
2023-11-23T07:17:39.448Z,22.86
2023-11-23T07:19:45.257Z,22.86
2023-11-23T07:21:50.699Z,22.87
2023-11-23T07:23:56.346Z,22.87
2023-11-23T07:26:01.895Z,22.88
2023-11-23T07:28:07.331Z,22.88
2023-11-23T07:30:12.886Z,22.88
2023-11-23T07:32:18.564Z,22.84
2023-11-23T07:34:23.953Z,22.83
2023-11-23T07:36:29.353Z,22.83
2023-11-23T07:38:34.835Z,22.79
2023-11-23T07:40:40.350Z,22.78
2023-11-23T07:42:45.903Z,22.76
2023-11-23T07:44:51.372Z,22.74
2023-11-23T07:46:57.023Z,22.71
2023-11-23T07:49:02.662Z,22.71
2023-11-23T07:51:08.313Z,22.69
2023-11-23T07:53:13.766Z,22.68
2023-11-23T07:55:20.558Z,22.68
2023-11-23T07:57:25.806Z,22.7
2023-11-23T07:59:31.398Z,22.73
2023-11-23T08:01:36.689Z,22.74
2023-11-23T08:03:42.274Z,22.77
2023-11-23T08:05:48.216Z,22.77
2023-11-23T08:07:53.961Z,22.76
2023-11-23T08:09:59.527Z,22.73
2023-11-23T08:12:05.162Z,22.69
2023-11-23T08:14:10.701Z,22.69
2023-11-23T08:16:16.236Z,22.67
2023-11-23T08:18:25.551Z,22.66
2023-11-23T08:20:52.938Z,22.65
2023-11-23T08:22:58.630Z,22.64
2023-11-23T08:25:03.924Z,22.62
2023-11-23T08:27:09.471Z,22.62
2023-11-23T08:29:14.891Z,22.6
2023-11-23T08:31:20.463Z,22.59
2023-11-23T08:33:26.249Z,22.56
2023-11-23T08:35:31.832Z,22.56
2023-11-23T08:37:37.270Z,22.55
2023-11-23T08:39:42.799Z,22.55
2023-11-23T08:41:48.256Z,22.54
2023-11-23T08:43:53.890Z,22.53
2023-11-23T08:45:59.222Z,22.53
2023-11-23T08:48:04.842Z,22.54
2023-11-23T08:50:10.425Z,22.53
2023-11-23T08:52:15.858Z,22.52
2023-11-23T08:54:21.330Z,22.54
2023-11-23T08:56:27.043Z,22.52
2023-11-23T08:58:32.393Z,22.54
2023-11-23T09:00:37.956Z,22.52
2023-11-23T09:02:43.534Z,22.51
2023-11-23T09:04:49.709Z,22.51
2023-11-23T09:06:56.502Z,22.5
2023-11-23T09:09:02.048Z,22.5
2023-11-23T09:11:07.572Z,22.49
2023-11-23T09:13:13.131Z,22.5
2023-11-23T09:15:19.422Z,22.49
2023-11-23T09:17:28.318Z,22.49
2023-11-23T09:19:33.804Z,22.49
2023-11-23T09:21:39.415Z,22.49
2023-11-23T09:23:44.930Z,22.48
2023-11-23T09:25:50.375Z,22.47
2023-11-23T09:27:55.911Z,22.48
2023-11-23T09:30:01.378Z,22.46
2023-11-23T09:32:07.110Z,22.47
2023-11-23T09:34:12.758Z,22.48
2023-11-23T09:36:18.416Z,22.49
2023-11-23T09:38:24.053Z,22.47
2023-11-23T09:40:29.586Z,22.46
2023-11-23T09:42:35.042Z,22.46
2023-11-23T09:44:40.576Z,22.46
2023-11-23T09:46:46.127Z,22.46
2023-11-23T09:48:51.578Z,22.46
2023-11-23T09:50:57.245Z,22.46
2023-11-23T09:53:02.631Z,22.45
2023-11-23T09:55:07.971Z,22.46
2023-11-23T09:57:13.523Z,22.45
2023-11-23T09:59:18.848Z,22.45
2023-11-23T10:01:24.284Z,22.45
2023-11-23T10:03:29.766Z,22.45
2023-11-23T10:05:35.585Z,22.44
2023-11-23T10:07:41.020Z,22.44
2023-11-23T10:09:46.565Z,22.43
2023-11-23T10:11:51.916Z,22.43
2023-11-23T10:13:57.333Z,22.43
2023-11-23T10:16:02.706Z,22.43
2023-11-23T10:18:08.089Z,22.44
2023-11-23T10:20:14.229Z,22.43
2023-11-23T10:22:19.924Z,22.45
2023-11-23T10:24:25.535Z,22.45
2023-11-23T10:26:31.017Z,22.45
2023-11-23T10:28:36.436Z,22.45
2023-11-23T10:30:41.799Z,22.44
2023-11-23T10:32:47.349Z,22.45
2023-11-23T10:34:52.879Z,22.45
2023-11-23T10:36:58.400Z,22.46
2023-11-23T10:39:04.119Z,22.46
2023-11-23T10:41:09.591Z,22.47
2023-11-23T10:43:15.037Z,22.47
2023-11-23T10:45:20.465Z,22.48
2023-11-23T10:47:26.430Z,22.48
2023-11-23T10:49:31.865Z,22.48
2023-11-23T10:51:37.253Z,22.39
2023-11-23T10:53:43.181Z,22.27
2023-11-23T10:55:48.805Z,22.25
2023-11-23T10:57:54.349Z,22.27
2023-11-23T10:59:59.696Z,22.3
2023-11-23T11:02:05.056Z,22.34
2023-11-23T11:04:10.801Z,22.38
2023-11-23T11:06:16.533Z,22.4
2023-11-23T11:08:22.389Z,22.42
2023-11-23T11:10:27.702Z,22.43
2023-11-23T11:12:33.176Z,22.46
2023-11-23T11:14:38.686Z,22.48
2023-11-23T11:16:44.135Z,22.51
2023-11-23T11:18:49.646Z,22.51
2023-11-23T11:20:55.418Z,22.54
2023-11-23T11:23:00.870Z,22.55
2023-11-23T11:25:06.505Z,22.56
2023-11-23T11:27:11.964Z,22.6
2023-11-23T11:29:17.704Z,22.63
2023-11-23T11:31:23.347Z,22.65
2023-11-23T11:33:28.989Z,22.67
2023-11-23T11:35:34.731Z,22.69
2023-11-23T11:37:40.876Z,22.71
2023-11-23T11:39:46.565Z,22.73
2023-11-23T11:41:52.188Z,22.74
2023-11-23T11:43:57.609Z,22.76
2023-11-23T11:46:03.270Z,22.77
2023-11-23T11:48:08.884Z,22.77
2023-11-23T11:50:14.368Z,22.68
2023-11-23T11:52:19.883Z,22.56
2023-11-23T11:54:25.448Z,22.53
2023-11-23T11:56:30.931Z,22.52
2023-11-23T11:58:36.432Z,22.55
2023-11-23T12:00:42.099Z,22.6
2023-11-23T12:02:47.797Z,22.64
2023-11-23T12:04:53.554Z,22.65
2023-11-23T12:06:58.996Z,22.69
2023-11-23T12:09:04.856Z,22.71
2023-11-23T12:11:10.271Z,22.73
2023-11-23T12:13:15.642Z,22.75
2023-11-23T12:15:20.882Z,22.77
2023-11-23T12:17:26.324Z,22.79
2023-11-23T12:19:31.732Z,22.8
2023-11-23T12:21:37.094Z,22.82
2023-11-23T12:23:42.403Z,22.81
2023-11-23T12:25:47.839Z,22.84
2023-11-23T12:27:53.301Z,22.83
2023-11-23T12:29:58.650Z,22.84
2023-11-23T12:32:04.040Z,22.84
2023-11-23T12:34:09.520Z,22.85
2023-11-23T12:36:14.904Z,22.84
2023-11-23T12:38:20.304Z,22.84
2023-11-23T12:40:25.622Z,22.84
2023-11-23T12:42:31.070Z,22.87
2023-11-23T12:44:36.898Z,22.86
2023-11-23T12:46:42.384Z,22.88
2023-11-23T12:48:48.238Z,22.9
2023-11-23T12:50:53.854Z,22.92
2023-11-23T12:52:59.281Z,22.93
2023-11-23T12:55:04.720Z,22.94
2023-11-23T12:57:10.060Z,22.97
2023-11-23T12:59:15.508Z,22.98
2023-11-23T13:01:21.058Z,23.01
2023-11-23T13:03:26.567Z,22.95
2023-11-23T13:05:32.236Z,22.8
2023-11-23T13:07:37.911Z,22.75
2023-11-23T13:09:43.445Z,22.77
2023-11-23T13:11:48.974Z,22.81
2023-11-23T13:13:54.498Z,22.81
2023-11-23T13:15:59.950Z,22.71
2023-11-23T13:18:05.734Z,22.61
2023-11-23T13:20:13.651Z,22.6
2023-11-23T13:22:19.659Z,22.67
2023-11-23T13:24:25.329Z,22.74
2023-11-23T13:26:31.039Z,22.81
2023-11-23T13:28:36.378Z,22.88
2023-11-23T13:30:41.947Z,22.92
2023-11-23T13:32:47.593Z,22.94
2023-11-23T13:34:53.203Z,22.99
2023-11-23T13:36:58.752Z,22.99
2023-11-23T13:39:04.445Z,23.02
2023-11-23T13:41:13.757Z,23.04
2023-11-23T13:43:19.274Z,23.05
2023-11-23T13:45:24.882Z,23.08
2023-11-23T13:47:30.686Z,23.1
2023-11-23T13:49:36.107Z,23.12
2023-11-23T13:51:41.681Z,23.13
2023-11-23T13:53:47.302Z,23.16
2023-11-23T13:55:52.823Z,23.17
2023-11-23T13:57:58.272Z,23.19
2023-11-23T14:00:03.621Z,23.19
2023-11-23T14:02:09.229Z,23.2
2023-11-23T14:04:14.913Z,23.22
2023-11-23T14:06:20.572Z,23.22
2023-11-23T14:08:26.275Z,23.22
2023-11-23T14:10:31.833Z,23.21
2023-11-23T14:12:37.329Z,23.22
2023-11-23T14:14:42.847Z,23.22
2023-11-23T14:16:48.312Z,23.23
2023-11-23T14:18:53.972Z,23.21
2023-11-23T14:20:59.465Z,23.21
2023-11-23T14:23:04.911Z,23.21
2023-11-23T14:25:10.335Z,23.21
2023-11-23T14:27:15.649Z,23.2
2023-11-23T14:29:21.399Z,23.19
2023-11-23T14:31:27.091Z,23.15
2023-11-23T14:33:32.837Z,23.13
2023-11-23T14:35:38.349Z,23.11
2023-11-23T14:37:43.883Z,23.1
2023-11-23T14:39:49.125Z,23.07
2023-11-23T14:41:54.516Z,23.05
2023-11-23T14:44:00.115Z,23.02
2023-11-23T14:46:05.506Z,23.01
2023-11-23T14:48:13.576Z,23.01
2023-11-23T14:50:19.081Z,23.02
2023-11-23T14:52:24.632Z,23.01
2023-11-23T14:54:34.515Z,22.98
2023-11-23T14:56:43.187Z,22.98
2023-11-23T14:58:48.534Z,22.98
2023-11-23T15:00:53.984Z,22.98
2023-11-23T15:02:59.247Z,22.97
2023-11-23T15:05:04.640Z,22.97
2023-11-23T15:07:09.887Z,22.97
2023-11-23T15:09:15.248Z,22.96
2023-11-23T15:11:20.761Z,22.84
2023-11-23T15:13:29.881Z,22.71
2023-11-23T15:15:43.180Z,22.73
2023-11-23T15:17:48.650Z,22.74
2023-11-23T15:19:55.247Z,22.76
2023-11-23T15:22:00.656Z,22.8
2023-11-23T15:24:06.030Z,22.83
2023-11-23T15:26:11.439Z,22.86
2023-11-23T15:28:16.790Z,22.9
2023-11-23T15:30:22.368Z,22.92
2023-11-23T15:32:27.942Z,22.93
2023-11-23T15:34:33.635Z,22.95
2023-11-23T15:36:39.164Z,22.97
2023-11-23T15:38:44.913Z,22.98
2023-11-23T15:40:50.707Z,22.99
2023-11-23T15:42:56.147Z,23
2023-11-23T15:45:01.745Z,23.01
2023-11-23T15:47:07.278Z,23.02
2023-11-23T15:49:12.609Z,23.02
2023-11-23T15:51:18.206Z,23.04
2023-11-23T15:53:23.797Z,23.04
2023-11-23T15:55:29.136Z,23.04
2023-11-23T15:57:34.600Z,23.04
2023-11-23T15:59:40.018Z,23.05
2023-11-23T16:01:45.492Z,23.06
2023-11-23T16:03:51.095Z,23.06
2023-11-23T16:05:56.755Z,23.06
2023-11-23T16:08:02.463Z,23.06
2023-11-23T16:10:08.156Z,23.06
2023-11-23T16:12:13.979Z,23.05
2023-11-23T16:14:19.646Z,23.03
2023-11-23T16:16:25.132Z,23.05
2023-11-23T16:18:30.656Z,23.04
2023-11-23T16:20:36.289Z,23.04
2023-11-23T16:22:41.842Z,23.06
2023-11-23T16:24:47.088Z,23.06
2023-11-23T16:26:52.745Z,23.07
2023-11-23T16:28:58.077Z,23.07
2023-11-23T16:31:03.664Z,23.07
2023-11-23T16:33:09.454Z,23.06
2023-11-23T16:35:15.004Z,23.06
2023-11-23T16:37:20.349Z,23.07
2023-11-23T16:39:25.900Z,23.07
2023-11-23T16:41:31.431Z,23.07
2023-11-23T16:43:36.775Z,23
2023-11-23T16:45:42.289Z,22.9
2023-11-23T16:47:47.855Z,22.87
2023-11-23T16:49:57.587Z,22.88
2023-11-23T16:52:03.338Z,22.89
2023-11-23T16:54:08.595Z,22.9
2023-11-23T16:56:13.850Z,22.92
2023-11-23T16:58:19.361Z,22.96
2023-11-23T17:00:25.069Z,22.99
2023-11-23T17:02:30.598Z,23.02
2023-11-23T17:04:36.411Z,23.05
2023-11-23T17:06:41.851Z,23.08
2023-11-23T17:08:47.284Z,23.09
2023-11-23T17:10:52.543Z,23.1
2023-11-23T17:12:57.960Z,23.09
2023-11-23T17:15:03.295Z,23.08
2023-11-23T17:17:08.842Z,23.07
2023-11-23T17:19:14.351Z,23.08
2023-11-23T17:21:19.801Z,23.06
2023-11-23T17:23:25.182Z,23.08
2023-11-23T17:25:30.535Z,23.09
2023-11-23T17:27:35.968Z,23.12
2023-11-23T17:29:41.347Z,23.11
2023-11-23T17:31:46.730Z,23.11
2023-11-23T17:33:52.145Z,23.1
2023-11-23T17:35:57.840Z,23.09
2023-11-23T17:38:03.235Z,23.1
2023-11-23T17:40:08.596Z,23.11
2023-11-23T17:42:14.056Z,23.12
2023-11-23T17:44:19.678Z,23.12
2023-11-23T17:46:24.957Z,23.13
2023-11-23T17:48:30.455Z,23.15
2023-11-23T17:50:37.646Z,23.15
2023-11-23T17:52:45.137Z,23.16
2023-11-23T17:54:50.604Z,23.13
2023-11-23T17:56:56.101Z,23.13
2023-11-23T17:59:05.121Z,23.14
2023-11-23T18:01:49.539Z,23.16
2023-11-23T18:03:55.397Z,23.16
2023-11-23T18:06:01.089Z,23.18
2023-11-23T18:08:06.626Z,23.17
2023-11-23T18:10:12.274Z,23.19
2023-11-23T18:12:17.817Z,23.2
2023-11-23T18:14:23.507Z,23.2
2023-11-23T18:16:28.793Z,23.21
2023-11-23T18:18:34.473Z,23.21
2023-11-23T18:20:39.973Z,23.21
2023-11-23T18:22:45.245Z,23.17
2023-11-23T18:24:50.669Z,23.04
2023-11-23T18:26:55.894Z,22.95
2023-11-23T18:29:01.333Z,22.94
2023-11-23T18:31:06.917Z,22.98
2023-11-23T18:33:16.352Z,23.03
2023-11-23T18:35:21.964Z,23.07
2023-11-23T18:37:27.507Z,23.1
2023-11-23T18:39:33.089Z,23.15
2023-11-23T18:41:38.911Z,23.15
2023-11-23T18:43:44.412Z,23.13
2023-11-23T18:45:50.910Z,23.1
2023-11-23T18:47:56.513Z,23.08
2023-11-23T18:50:02.109Z,23.07
2023-11-23T18:52:07.418Z,23.06
2023-11-23T18:54:13.907Z,23.03
2023-11-23T18:56:19.332Z,23.01
2023-11-23T18:58:24.674Z,23
2023-11-23T19:00:30.140Z,22.99
2023-11-23T19:02:35.833Z,22.99
2023-11-23T19:04:41.727Z,23
2023-11-23T19:06:47.171Z,23.01
2023-11-23T19:08:57.212Z,23.03
2023-11-23T19:11:02.663Z,23.05
2023-11-23T19:13:08.197Z,23.06
2023-11-23T19:15:13.852Z,23.05
2023-11-23T19:17:19.378Z,22.95
2023-11-23T19:19:24.760Z,22.9
2023-11-23T19:21:30.192Z,22.9
2023-11-23T19:23:35.796Z,22.93
2023-11-23T19:25:41.146Z,22.97
2023-11-23T19:27:46.506Z,23.01
2023-11-23T19:29:52.026Z,23.04
2023-11-23T19:31:57.480Z,23.06
2023-11-23T19:34:02.975Z,23.08
2023-11-23T19:36:08.851Z,23.1
2023-11-23T19:38:14.201Z,23.12
2023-11-23T19:40:19.643Z,23.12
2023-11-23T19:42:25.197Z,23.15
2023-11-23T19:44:30.628Z,23.15
2023-11-23T19:46:36.311Z,23.15
2023-11-23T19:48:41.829Z,23.16
2023-11-23T19:50:47.358Z,23.16
2023-11-23T19:52:52.695Z,23.15
2023-11-23T19:54:58.024Z,23.16
2023-11-23T19:57:03.373Z,23.16
2023-11-23T19:59:08.809Z,23.17
2023-11-23T20:01:14.243Z,23.17
2023-11-23T20:03:19.925Z,23.16
2023-11-23T20:05:25.330Z,23.17
2023-11-23T20:07:30.701Z,23.17
2023-11-23T20:09:36.148Z,23.18
2023-11-23T20:11:41.994Z,23.19
2023-11-23T20:13:47.501Z,23.19
2023-11-23T20:15:53.044Z,23.18
2023-11-23T20:17:58.824Z,23.19
2023-11-23T20:20:04.340Z,23.19
2023-11-23T20:22:09.990Z,23.19
2023-11-23T20:24:15.472Z,23.05
2023-11-23T20:26:20.973Z,22.91
2023-11-23T20:28:26.366Z,22.91
2023-11-23T20:30:31.749Z,22.97
2023-11-23T20:32:37.309Z,23.02
2023-11-23T20:34:43.062Z,23.08
2023-11-23T20:36:48.724Z,23.11
2023-11-23T20:38:54.128Z,23.14
2023-11-23T20:40:59.676Z,23.18
2023-11-23T20:43:05.011Z,23.2
2023-11-23T20:45:10.469Z,23.21
2023-11-23T20:47:16.197Z,23.22
2023-11-23T20:49:22.765Z,23.24
2023-11-23T20:51:28.213Z,23.25
2023-11-23T20:53:33.683Z,23.25
2023-11-23T20:55:39.103Z,23.24
2023-11-23T20:57:44.748Z,23.23
2023-11-23T20:59:50.346Z,22.78
2023-11-23T21:01:55.915Z,22.67
2023-11-23T21:04:02.169Z,22.63
2023-11-23T21:06:08.037Z,22.68
2023-11-23T21:08:13.481Z,22.68
2023-11-23T21:10:18.932Z,22.66
2023-11-23T21:12:27.069Z,22.68
2023-11-23T21:14:33.484Z,22.67
2023-11-23T21:16:38.822Z,22.66
2023-11-23T21:18:44.342Z,22.47
2023-11-23T21:20:50.047Z,22.48
2023-11-23T21:22:55.346Z,22.61
2023-11-23T21:25:00.686Z,22.74
2023-11-23T21:27:06.229Z,22.87
2023-11-23T21:29:11.684Z,22.97
2023-11-23T21:31:17.158Z,23.04
2023-11-23T21:33:22.771Z,23.09
2023-11-23T21:35:28.311Z,23.13
2023-11-23T21:37:33.736Z,23.16
2023-11-23T21:39:39.133Z,23.16
2023-11-23T21:41:45.598Z,23.16
2023-11-23T21:43:54.875Z,23.17
2023-11-23T21:46:00.441Z,23.2
2023-11-23T21:48:06.012Z,23.22
2023-11-23T21:50:11.719Z,23.24
2023-11-23T21:52:17.267Z,23.27
2023-11-23T21:54:22.717Z,23.29
2023-11-23T21:56:28.146Z,23.3
2023-11-23T21:58:33.594Z,23.31
2023-11-23T22:00:38.999Z,23.32
2023-11-23T22:02:44.566Z,23.35
2023-11-23T22:04:50.227Z,23.35
2023-11-23T22:06:55.646Z,23.32
2023-11-23T22:09:00.991Z,23.29
2023-11-23T22:11:07.588Z,23.22
2023-11-23T22:13:16.991Z,23.2
2023-11-23T22:15:22.355Z,23.23
2023-11-23T22:17:28.505Z,23.26
2023-11-23T22:19:33.829Z,23.29
2023-11-23T22:21:39.293Z,23.32
2023-11-23T22:23:44.710Z,23.33
2023-11-23T22:25:50.247Z,23.37
2023-11-23T22:27:55.828Z,23.39
2023-11-23T22:30:01.329Z,23.41
2023-11-23T22:32:06.674Z,23.43
2023-11-23T22:34:12.224Z,23.46
2023-11-23T22:36:17.672Z,23.48
2023-11-23T22:38:22.990Z,23.49
2023-11-23T22:40:28.439Z,23.49
2023-11-23T22:42:33.801Z,23.51
2023-11-23T22:44:39.424Z,23.52
2023-11-23T22:46:44.890Z,23.53
2023-11-23T22:48:50.303Z,23.54
2023-11-23T22:50:55.748Z,23.56
2023-11-23T22:53:01.145Z,23.57
2023-11-23T22:55:06.528Z,23.59
2023-11-23T22:57:11.808Z,23.55
2023-11-23T22:59:17.227Z,23.56
2023-11-23T23:01:22.667Z,23.55
2023-11-23T23:03:28.269Z,23.58
2023-11-23T23:05:33.937Z,23.59
2023-11-23T23:07:39.379Z,23.59
2023-11-23T23:09:44.766Z,23.61
2023-11-23T23:11:50.357Z,23.63
2023-11-23T23:13:55.797Z,23.66
2023-11-23T23:16:01.158Z,23.67
2023-11-23T23:18:06.697Z,23.71
2023-11-23T23:20:12.198Z,23.69
2023-11-23T23:22:24.165Z,23.67
2023-11-23T23:24:33.680Z,23.56
2023-11-23T23:26:39.296Z,23.51
2023-11-23T23:28:44.632Z,23.43
2023-11-23T23:30:50.255Z,23.37
2023-11-23T23:32:55.876Z,23.31
2023-11-23T23:35:01.383Z,23.26
2023-11-23T23:37:06.821Z,23.23
2023-11-23T23:39:12.568Z,23.19
2023-11-23T23:41:18.005Z,23.17
2023-11-23T23:43:23.577Z,23.12
2023-11-23T23:45:29.131Z,23.09
2023-11-23T23:47:34.650Z,23.05
2023-11-23T23:49:40.067Z,23.03
2023-11-23T23:51:45.470Z,22.99
2023-11-23T23:53:50.940Z,22.95
2023-11-23T23:55:56.290Z,22.93
2023-11-23T23:58:03.934Z,22.93
